Time;durP1;ratioP1;P1;durP2;ratioP2;P2;SDS_P1;SDS_P2;PMS_P1;PMS_P2;Temp;Humidity;BMP_temperature;BMP_pressure;BME280_temperature;BME280_humidity;BME280_pressure;Samples;Min_cycle;Max_cycle;Signal;HPM_P1;HPM_P2
2023/09/16 00:01:44;;;;;;;618.23;579.27;;;14.50;99.90;;;;;;5053904;28;20513;-69
2023/09/16 00:04:11;;;;;;;622.37;583.40;;;14.50;99.90;;;;;;5054068;28;20455;-69
2023/09/16 00:06:38;;;;;;;619.23;580.57;;;14.50;99.90;;;;;;5039235;28;20544;-69
2023/09/16 00:09:06;;;;;;;603.40;566.10;;;14.50;99.90;;;;;;5033758;28;20982;-69
2023/09/16 00:11:33;;;;;;;609.97;573.40;;;14.40;99.90;;;;;;5033871;28;20475;-69
2023/09/16 00:14:00;;;;;;;688.93;645.53;;;14.40;99.90;;;;;;5033779;28;20456;-68
2023/09/16 00:16:29;;;;;;;679.10;636.83;;;14.30;99.90;;;;;;5033797;28;20522;-69
2023/09/16 00:18:56;;;;;;;692.03;649.03;;;14.20;99.90;;;;;;5038484;28;20541;-69
2023/09/16 00:21:23;;;;;;;736.00;689.53;;;14.20;99.90;;;;;;5053023;28;20459;-68
2023/09/16 00:23:50;;;;;;;805.13;754.67;;;14.10;99.90;;;;;;5053734;28;20935;-68
2023/09/16 00:26:18;;;;;;;889.97;833.57;;;14.00;99.90;;;;;;5037560;28;20460;-68
2023/09/16 00:28:45;;;;;;;918.37;859.27;;;13.90;99.90;;;;;;5033583;28;20945;-69
2023/09/16 00:31:12;;;;;;;911.53;853.17;;;13.90;99.90;;;;;;5033326;28;20543;-68
2023/09/16 00:33:39;;;;;;;902.70;845.30;;;13.80;99.90;;;;;;5052936;28;20451;-68
2023/09/16 00:36:06;;;;;;;894.37;837.90;;;13.90;99.90;;;;;;5052782;28;20991;-68
2023/09/16 00:38:33;;;;;;;869.90;815.53;;;13.80;99.90;;;;;;5051384;28;20462;-68
2023/09/16 00:41:00;;;;;;;863.83;809.90;;;13.80;99.90;;;;;;5041995;28;20451;-68
2023/09/16 00:43:28;;;;;;;856.90;803.70;;;13.80;99.90;;;;;;5053262;28;20453;-68
2023/09/16 00:45:55;;;;;;;830.17;778.97;;;13.80;99.90;;;;;;5052926;28;20447;-68
2023/09/16 00:48:22;;;;;;;822.47;771.77;;;13.80;99.90;;;;;;5038867;28;20448;-68
2023/09/16 00:50:49;;;;;;;814.70;764.27;;;13.80;99.90;;;;;;5033081;28;20448;-68
2023/09/16 00:53:16;;;;;;;795.77;746.97;;;13.90;99.90;;;;;;5049526;28;20458;-68
2023/09/16 00:55:45;;;;;;;791.60;743.00;;;13.90;99.90;;;;;;5052941;28;20867;-68
2023/09/16 00:58:12;;;;;;;809.57;759.50;;;13.90;99.90;;;;;;5052909;28;20458;-69
2023/09/16 01:00:41;;;;;;;814.60;764.07;;;13.90;99.90;;;;;;5051872;28;20452;-68
2023/09/16 01:03:09;;;;;;;787.17;737.90;;;14.00;99.90;;;;;;5053042;28;20822;-69
2023/09/16 01:05:36;;;;;;;791.70;742.60;;;14.00;99.90;;;;;;5051047;28;20837;-68
2023/09/16 01:08:04;;;;;;;805.60;755.90;;;14.00;99.90;;;;;;5052575;28;20454;-68
2023/09/16 01:10:32;;;;;;;804.07;755.07;;;14.00;99.90;;;;;;5052489;28;20460;-68
2023/09/16 01:12:59;;;;;;;789.13;741.03;;;14.00;99.90;;;;;;5052801;28;20454;-68
2023/09/16 01:15:31;;;;;;;807.77;757.67;;;13.90;99.90;;;;;;5051962;28;21028;-68
2023/09/16 01:18:05;;;;;;;808.00;758.53;;;13.90;99.90;;;;;;5051840;28;20535;-68
2023/09/16 01:20:33;;;;;;;830.30;779.53;;;13.90;99.90;;;;;;5049477;28;20521;-69
2023/09/16 01:23:00;;;;;;;824.87;773.90;;;13.90;99.90;;;;;;5035462;28;20484;-69
2023/09/16 01:25:29;;;;;;;837.77;785.47;;;13.90;99.90;;;;;;5052303;28;20459;-68
2023/09/16 01:27:56;;;;;;;809.40;759.63;;;13.90;99.90;;;;;;5052114;28;20462;-68
2023/09/16 01:30:26;;;;;;;782.77;734.67;;;13.90;99.90;;;;;;5035759;28;20557;-69
2023/09/16 01:32:58;;;;;;;776.67;729.00;;;13.90;99.90;;;;;;5052403;28;20790;-69
2023/09/16 01:35:29;;;;;;;766.60;719.70;;;13.80;99.90;;;;;;5052167;28;20468;-68
2023/09/16 01:37:57;;;;;;;764.33;717.80;;;13.80;99.90;;;;;;5051949;28;20459;-68
2023/09/16 01:40:27;;;;;;;766.33;720.63;;;13.70;99.90;;;;;;5052089;28;20451;-68
2023/09/16 01:42:58;;;;;;;787.40;740.07;;;13.60;99.90;;;;;;5046518;28;20531;-69
2023/09/16 01:45:25;;;;;;;795.43;747.63;;;13.60;99.90;;;;;;5033655;28;20819;-68
2023/09/16 01:47:52;;;;;;;791.90;744.03;;;13.50;99.90;;;;;;5033486;28;20498;-69
2023/09/16 01:50:19;;;;;;;812.30;763.93;;;13.50;99.90;;;;;;5052511;28;20455;-69
2023/09/16 01:52:46;;;;;;;879.50;824.93;;;13.40;99.90;;;;;;5051762;28;20451;-69
2023/09/16 01:55:13;;;;;;;939.80;878.10;;;13.40;99.90;;;;;;5045231;28;20541;-69
2023/09/16 01:57:40;;;;;;;916.70;859.70;;;13.50;99.90;;;;;;5032199;28;20452;-69
2023/09/16 02:00:09;;;;;;;907.00;850.80;;;13.40;99.90;;;;;;5032107;28;20531;-69
2023/09/16 02:02:36;;;;;;;930.93;871.10;;;13.30;99.90;;;;;;5032236;28;20452;-68
2023/09/16 02:05:03;;;;;;;953.47;891.80;;;13.20;99.90;;;;;;5032232;28;20475;-68
2023/09/16 02:07:30;;;;;;;906.70;849.90;;;13.20;99.90;;;;;;5032041;28;20534;-69
2023/09/16 02:09:57;;;;;;;946.90;885.60;;;13.20;99.90;;;;;;5031822;28;20456;-68
2023/09/16 02:12:24;;;;;;;984.87;916.20;;;13.10;99.90;;;;;;5032405;28;20458;-69
2023/09/16 02:14:51;;;;;;;1018.30;945.23;;;13.30;99.90;;;;;;5032095;28;20448;-69
2023/09/16 02:17:19;;;;;;;995.50;924.77;;;13.40;99.90;;;;;;5033041;28;20468;-68
2023/09/16 02:19:46;;;;;;;1016.53;941.83;;;13.40;99.90;;;;;;5043601;28;20534;-69
2023/09/16 02:22:13;;;;;;;1027.87;953.27;;;13.50;99.90;;;;;;5047647;28;20462;-68
2023/09/16 02:24:40;;;;;;;1036.57;960.67;;;13.50;99.90;;;;;;5051530;28;20478;-69
2023/09/16 02:27:07;;;;;;;1046.63;969.13;;;13.50;99.90;;;;;;5036517;28;20448;-68
2023/09/16 02:29:34;;;;;;;1032.03;958.40;;;13.50;99.90;;;;;;5046279;28;20543;-68
2023/09/16 02:32:01;;;;;;;1045.93;968.13;;;13.50;99.90;;;;;;5043076;28;20849;-68
2023/09/16 02:34:31;;;;;;;1053.63;976.13;;;13.50;99.90;;;;;;5031750;28;20816;-69
2023/09/16 02:36:59;;;;;;;1022.00;952.80;;;13.60;99.90;;;;;;5032204;28;20486;-69
2023/09/16 02:39:26;;;;;;;1009.40;943.03;;;13.50;99.90;;;;;;5031510;28;20456;-68
2023/09/16 02:41:53;;;;;;;1003.07;937.17;;;13.50;99.90;;;;;;5045810;28;20459;-69
2023/09/16 02:44:20;;;;;;;1006.00;938.93;;;13.50;99.90;;;;;;5040444;28;20447;-69
2023/09/16 02:46:46;;;;;;;1005.33;937.83;;;13.50;99.90;;;;;;5047198;28;20927;-69
2023/09/16 02:49:13;;;;;;;1006.47;937.77;;;13.60;99.90;;;;;;5039938;28;20951;-69
2023/09/16 02:51:42;;;;;;;997.60;929.03;;;13.70;99.90;;;;;;5042758;28;20447;-69
2023/09/16 02:54:08;;;;;;;986.13;918.80;;;13.80;99.90;;;;;;5039960;28;20452;-68
2023/09/16 02:56:35;;;;;;;985.60;918.10;;;13.90;99.90;;;;;;5037439;28;20482;-68
2023/09/16 02:59:02;;;;;;;972.10;906.20;;;14.10;99.90;;;;;;5055144;28;20458;-68
2023/09/16 03:01:29;;;;;;;963.97;900.43;;;14.20;99.90;;;;;;5055353;28;20451;-68
2023/09/16 03:03:56;;;;;;;943.67;881.47;;;14.30;99.90;;;;;;5055559;28;20550;-69
2023/09/16 03:06:23;;;;;;;933.67;873.77;;;14.40;99.90;;;;;;5055242;28;20450;-69
2023/09/16 03:08:51;;;;;;;910.73;853.43;;;14.40;99.90;;;;;;5052374;28;20463;-69
2023/09/16 03:11:18;;;;;;;902.70;846.77;;;14.40;99.90;;;;;;5035041;28;20460;-69
2023/09/16 03:13:45;;;;;;;895.40;840.10;;;14.40;99.90;;;;;;5035321;28;20834;-69
2023/09/16 03:16:15;;;;;;;888.60;834.50;;;14.40;99.90;;;;;;5047280;28;20471;-69
2023/09/16 03:18:43;;;;;;;895.70;842.30;;;14.40;99.90;;;;;;5052985;28;20455;-69
2023/09/16 03:21:10;;;;;;;887.33;834.23;;;14.30;99.90;;;;;;5034914;28;20804;-69
2023/09/16 03:23:37;;;;;;;892.87;838.50;;;14.40;99.90;;;;;;5034880;28;20455;-69
2023/09/16 03:26:05;;;;;;;878.07;825.17;;;14.40;99.90;;;;;;5036192;28;20975;-69
2023/09/16 03:28:32;;;;;;;869.60;817.63;;;14.40;99.90;;;;;;5035064;28;20940;-68
2023/09/16 03:30:59;;;;;;;850.57;800.50;;;14.40;99.90;;;;;;5034775;28;20547;-68
2023/09/16 03:33:26;;;;;;;855.80;805.27;;;14.40;99.90;;;;;;5034881;28;20532;-69
2023/09/16 03:35:52;;;;;;;847.70;797.17;;;14.30;99.90;;;;;;5035687;28;20457;-69
2023/09/16 03:38:19;;;;;;;859.93;808.83;;;14.30;99.90;;;;;;5034918;28;20452;-69
2023/09/16 03:40:46;;;;;;;855.77;805.20;;;14.30;99.90;;;;;;5052898;28;20950;-69
2023/09/16 03:43:14;;;;;;;860.57;809.60;;;14.30;99.90;;;;;;5054647;28;20452;-69
2023/09/16 03:45:41;;;;;;;858.83;808.23;;;14.20;99.90;;;;;;5037584;28;20475;-69
2023/09/16 03:48:08;;;;;;;846.03;795.80;;;14.20;99.90;;;;;;5035189;28;20543;-69
2023/09/16 03:50:35;;;;;;;852.67;802.20;;;14.10;99.90;;;;;;5034153;28;20475;-69
2023/09/16 03:53:02;;;;;;;842.63;792.47;;;14.10;99.90;;;;;;5034626;28;20459;-69
2023/09/16 03:55:29;;;;;;;847.00;796.17;;;14.10;99.90;;;;;;5036565;28;20535;-69
2023/09/16 03:57:56;;;;;;;830.03;779.60;;;14.10;99.90;;;;;;5054194;28;20586;-69
2023/09/16 04:00:24;;;;;;;835.03;784.57;;;14.10;99.90;;;;;;5053199;28;20837;-69
2023/09/16 04:02:51;;;;;;;830.67;780.37;;;14.10;99.90;;;;;;5053510;28;21042;-68
2023/09/16 04:05:17;;;;;;;837.47;787.20;;;14.10;99.90;;;;;;5054042;28;20448;-69
2023/09/16 04:07:44;;;;;;;833.40;784.27;;;14.00;99.90;;;;;;5053487;28;20455;-69
2023/09/16 04:10:11;;;;;;;815.50;767.40;;;14.00;99.90;;;;;;5053622;28;20463;-69
2023/09/16 04:12:38;;;;;;;813.37;765.77;;;14.00;99.90;;;;;;5054149;28;20808;-69
2023/09/16 04:15:06;;;;;;;801.73;754.73;;;13.80;99.90;;;;;;5053756;28;20809;-69
2023/09/16 04:17:34;;;;;;;809.43;761.87;;;13.80;99.90;;;;;;5051800;28;20475;-68
2023/09/16 04:20:05;;;;;;;818.53;770.03;;;13.80;99.90;;;;;;5047628;28;20458;-68
2023/09/16 04:22:32;;;;;;;805.53;757.17;;;13.80;99.90;;;;;;5034072;28;20876;-68
2023/09/16 04:24:59;;;;;;;806.20;758.10;;;13.80;99.90;;;;;;5033777;28;20942;-69
2023/09/16 04:27:26;;;;;;;798.07;750.27;;;13.80;99.90;;;;;;5033962;28;20459;-69
2023/09/16 04:29:53;;;;;;;808.00;760.23;;;13.80;99.90;;;;;;5033521;28;20564;-69
2023/09/16 04:32:20;;;;;;;808.27;760.47;;;13.80;99.90;;;;;;5041288;28;20452;-69
2023/09/16 04:34:48;;;;;;;794.47;747.03;;;13.80;99.90;;;;;;5036269;28;20460;-69
2023/09/16 04:37:16;;;;;;;794.80;747.60;;;13.70;99.90;;;;;;5050320;28;20842;-68
2023/09/16 04:39:43;;;;;;;782.37;736.13;;;13.70;99.90;;;;;;5050967;28;20458;-67
2023/09/16 04:42:10;;;;;;;780.70;734.80;;;13.60;99.90;;;;;;5041721;28;20460;-69
2023/09/16 04:44:38;;;;;;;793.37;745.90;;;13.60;99.90;;;;;;5052477;28;20517;-69
2023/09/16 04:47:07;;;;;;;800.73;753.17;;;13.60;99.90;;;;;;5038869;28;20448;-69
2023/09/16 04:49:34;;;;;;;822.87;773.97;;;13.50;99.90;;;;;;5033356;28;20452;-69
2023/09/16 04:52:03;;;;;;;814.47;765.73;;;13.50;99.90;;;;;;5044742;28;20977;-69
2023/09/16 04:54:31;;;;;;;835.67;785.63;;;13.50;99.90;;;;;;5047021;28;20859;-68
2023/09/16 04:56:58;;;;;;;859.17;806.63;;;13.40;99.90;;;;;;5038301;28;20551;-69
2023/09/16 04:59:25;;;;;;;861.93;809.67;;;13.40;99.90;;;;;;5052682;28;20452;-69
2023/09/16 05:01:52;;;;;;;855.57;803.37;;;13.40;99.90;;;;;;5052877;28;20891;-69
2023/09/16 05:04:19;;;;;;;862.17;808.67;;;13.40;99.90;;;;;;5053080;28;20797;-69
2023/09/16 05:06:46;;;;;;;856.33;803.50;;;13.40;99.90;;;;;;5053052;28;20957;-69
2023/09/16 05:09:14;;;;;;;872.40;818.37;;;13.40;99.90;;;;;;5052637;28;20550;-69
2023/09/16 05:11:43;;;;;;;870.50;816.80;;;13.40;99.90;;;;;;5050127;28;20455;-69
2023/09/16 05:14:10;;;;;;;874.73;820.13;;;13.40;99.90;;;;;;5039918;28;20460;-69
2023/09/16 05:16:37;;;;;;;862.33;808.63;;;13.50;99.90;;;;;;5032790;28;20472;-69
2023/09/16 05:19:03;;;;;;;845.87;792.57;;;13.50;99.90;;;;;;5032787;28;20452;-68
2023/09/16 05:21:30;;;;;;;829.77;777.07;;;13.40;99.90;;;;;;5032788;28;20471;-69
2023/09/16 05:23:57;;;;;;;845.90;792.10;;;13.40;99.90;;;;;;5032811;28;20543;-69
2023/09/16 05:26:25;;;;;;;833.73;780.87;;;13.50;99.90;;;;;;5032654;28;20452;-69
2023/09/16 05:28:52;;;;;;;826.17;773.33;;;13.50;99.90;;;;;;5032788;28;20460;-69
2023/09/16 05:31:19;;;;;;;813.03;761.07;;;13.50;99.90;;;;;;5032697;28;20547;-69
2023/09/16 05:33:46;;;;;;;801.70;751.70;;;13.60;99.90;;;;;;5035556;28;20452;-69
2023/09/16 05:36:13;;;;;;;807.73;757.23;;;13.60;99.90;;;;;;5038730;28;20663;-68
2023/09/16 05:38:40;;;;;;;803.93;754.37;;;13.70;99.90;;;;;;5037893;28;20987;-68
2023/09/16 05:41:06;;;;;;;788.00;739.80;;;13.80;99.90;;;;;;5042094;28;20456;-68
2023/09/16 05:43:35;;;;;;;763.63;717.33;;;13.80;99.90;;;;;;5043952;28;20959;-68
2023/09/16 05:46:01;;;;;;;737.43;694.03;;;13.80;99.90;;;;;;5035839;28;20456;-68
2023/09/16 05:48:28;;;;;;;735.60;691.70;;;13.80;99.90;;;;;;5040534;28;20511;-67
2023/09/16 05:50:59;;;;;;;734.60;691.57;;;13.90;99.90;;;;;;5038913;28;20502;-68
2023/09/16 05:53:27;;;;;;;721.67;679.57;;;14.00;99.90;;;;;;5032068;28;20459;-69
2023/09/16 05:55:54;;;;;;;722.30;680.23;;;14.00;99.90;;;;;;5045406;28;20455;-69
2023/09/16 05:58:21;;;;;;;712.10;671.00;;;14.00;99.90;;;;;;5052230;28;20483;-68
2023/09/16 06:00:55;;;;;;;720.33;677.97;;;14.00;99.90;;;;;;5052046;28;20474;-68
2023/09/16 06:03:22;;;;;;;729.60;686.47;;;14.10;99.90;;;;;;5051127;28;20450;-69
2023/09/16 06:05:49;;;;;;;726.23;683.50;;;14.20;99.90;;;;;;5051707;28;20447;-68
2023/09/16 06:08:16;;;;;;;718.83;676.17;;;14.20;99.90;;;;;;5039517;28;20450;-69
2023/09/16 06:10:43;;;;;;;715.63;672.97;;;14.30;99.90;;;;;;5049232;28;20466;-68
2023/09/16 06:13:09;;;;;;;692.13;651.13;;;14.30;99.90;;;;;;5035603;28;20474;-69
2023/09/16 06:15:36;;;;;;;680.00;640.50;;;14.40;99.90;;;;;;5048174;28;20458;-68
2023/09/16 06:18:06;;;;;;;667.50;628.50;;;14.50;99.90;;;;;;5050162;28;21001;-69
2023/09/16 06:20:33;;;;;;;633.13;596.10;;;14.60;99.90;;;;;;5032019;28;20467;-68
2023/09/16 06:23:03;;;;;;;651.10;612.80;;;14.70;99.90;;;;;;5038610;28;20547;-68
2023/09/16 06:25:30;;;;;;;628.83;591.30;;;14.80;99.90;;;;;;5045831;28;20506;-69
2023/09/16 06:27:59;;;;;;;609.77;573.80;;;14.90;99.90;;;;;;5037559;28;20457;-68
2023/09/16 06:30:26;;;;;;;578.00;545.10;;;15.10;99.90;;;;;;5050413;28;20520;-68
2023/09/16 06:32:53;;;;;;;561.77;529.80;;;15.20;99.90;;;;;;5038200;28;20448;-69
2023/09/16 06:35:22;;;;;;;503.73;476.50;;;15.30;99.90;;;;;;5051269;28;20463;-68
2023/09/16 06:37:49;;;;;;;503.10;476.63;;;15.40;99.90;;;;;;5039946;28;20478;-69
2023/09/16 06:40:17;;;;;;;459.40;436.27;;;15.60;99.90;;;;;;5053092;28;20455;-69
2023/09/16 06:42:44;;;;;;;454.87;432.77;;;15.60;99.90;;;;;;5051985;28;20450;-68
2023/09/16 06:45:12;;;;;;;421.57;401.90;;;15.80;99.90;;;;;;5036494;28;20455;-68
2023/09/16 06:47:39;;;;;;;396.37;378.47;;;15.90;99.90;;;;;;5035478;28;20931;-69
2023/09/16 06:50:08;;;;;;;385.73;369.13;;;16.00;99.90;;;;;;5035665;28;20546;-68
2023/09/16 06:52:36;;;;;;;375.40;359.23;;;16.10;99.90;;;;;;5044390;28;20451;-68
2023/09/16 06:55:04;;;;;;;346.03;332.07;;;16.20;99.90;;;;;;5047919;28;20457;-68
2023/09/16 06:57:31;;;;;;;322.03;309.33;;;16.30;99.90;;;;;;5040909;28;20467;-68
2023/09/16 06:59:58;;;;;;;295.10;284.03;;;16.40;99.90;;;;;;5044331;28;20950;-69
2023/09/16 07:02:25;;;;;;;263.83;254.13;;;16.50;99.90;;;;;;5045916;28;20464;-69
2023/09/16 07:04:51;;;;;;;238.77;230.57;;;16.60;99.90;;;;;;5038824;28;20478;-69
2023/09/16 07:07:20;;;;;;;225.70;217.60;;;16.70;99.90;;;;;;5051825;28;20450;-69
2023/09/16 07:09:48;;;;;;;194.07;187.37;;;16.90;99.90;;;;;;5049292;28;20448;-69
2023/09/16 07:12:14;;;;;;;221.53;214.10;;;17.00;99.90;;;;;;5039666;28;20448;-69
2023/09/16 07:14:41;;;;;;;139.50;134.60;;;17.10;99.90;;;;;;5035097;28;20496;-69
2023/09/16 07:17:08;;;;;;;147.70;142.53;;;17.20;99.90;;;;;;5035081;28;21021;-69
2023/09/16 07:19:35;;;;;;;120.53;115.83;;;17.40;99.90;;;;;;5050232;28;20447;-69
2023/09/16 07:22:02;;;;;;;139.10;133.77;;;17.50;99.90;;;;;;5053714;28;20962;-68
2023/09/16 07:24:29;;;;;;;66.90;63.70;;;17.60;99.90;;;;;;5043611;28;20457;-69
2023/09/16 07:26:57;;;;;;;30.73;29.03;;;17.70;99.90;;;;;;5034454;28;20453;-69
2023/09/16 07:29:24;;;;;;;16.00;14.70;;;17.80;99.90;;;;;;5034014;28;20463;-69
2023/09/16 07:31:51;;;;;;;25.50;24.00;;;17.90;99.90;;;;;;5034619;28;20457;-69
2023/09/16 07:34:19;;;;;;;15.97;14.80;;;18.00;99.90;;;;;;5034569;28;20476;-68
2023/09/16 07:36:46;;;;;;;16.17;14.87;;;18.10;99.90;;;;;;5037346;28;20492;-68
2023/09/16 07:39:13;;;;;;;9.20;7.10;;;18.20;99.90;;;;;;5041248;28;20485;-68
2023/09/16 07:41:40;;;;;;;13.63;7.60;;;18.30;99.90;;;;;;5037226;28;20452;-68
2023/09/16 07:44:08;;;;;;;8.03;6.60;;;18.40;99.90;;;;;;5042814;28;21015;-70
2023/09/16 07:46:35;;;;;;;7.90;7.00;;;18.50;99.90;;;;;;5037709;28;20459;-68
2023/09/16 07:49:02;;;;;;;11.90;7.60;;;18.60;99.90;;;;;;5048496;28;20451;-69
2023/09/16 07:51:29;;;;;;;9.07;6.85;;;18.70;99.90;;;;;;5034131;28;20453;-69
2023/09/16 07:53:56;;;;;;;7.80;6.00;;;18.80;99.90;;;;;;5033701;28;20205;-69
2023/09/16 07:56:22;;;;;;;8.07;6.43;;;19.00;99.90;;;;;;5033595;28;20478;-69
2023/09/16 07:58:49;;;;;;;7.60;5.10;;;19.20;99.90;;;;;;5033979;28;20490;-69
2023/09/16 08:01:17;;;;;;;7.37;5.13;;;19.30;99.90;;;;;;5034074;28;20461;-70
2023/09/16 08:03:44;;;;;;;8.87;5.97;;;19.40;99.90;;;;;;5034083;28;20969;-69
2023/09/16 08:06:12;;;;;;;7.97;4.90;;;19.60;99.90;;;;;;5033922;28;20457;-68
2023/09/16 08:08:39;;;;;;;9.10;5.30;;;19.90;99.90;;;;;;5046189;28;20458;-68
2023/09/16 08:11:06;;;;;;;7.30;4.93;;;20.20;99.90;;;;;;5038040;28;20819;-69
2023/09/16 08:13:33;;;;;;;9.00;5.23;;;20.50;99.90;;;;;;5043972;28;20462;-69
2023/09/16 08:16:00;;;;;;;7.60;4.80;;;20.80;99.90;;;;;;5041292;28;20449;-69
2023/09/16 08:18:28;;;;;;;8.57;4.77;;;21.20;98.10;;;;;;5040566;28;20523;-69
2023/09/16 08:20:55;;;;;;;9.73;5.10;;;21.40;95.70;;;;;;5046723;28;20961;-69
2023/09/16 08:23:22;;;;;;;8.70;4.80;;;21.50;95.70;;;;;;5034793;28;20489;-69
2023/09/16 08:25:49;;;;;;;6.77;4.13;;;21.80;94.40;;;;;;5033904;28;20501;-70
2023/09/16 08:28:16;;;;;;;8.57;5.07;;;22.00;94.90;;;;;;5034060;28;20455;-69
2023/09/16 08:30:42;;;;;;;8.27;6.17;;;22.20;92.90;;;;;;5033302;28;20452;-69
2023/09/16 08:33:10;;;;;;;7.00;4.30;;;22.40;91.20;;;;;;5033453;28;20457;-70
2023/09/16 08:35:38;;;;;;;7.47;5.20;;;22.80;88.60;;;;;;5033303;28;20455;-70
2023/09/16 08:38:07;;;;;;;7.33;4.57;;;23.20;89.00;;;;;;5033014;28;20571;-69
2023/09/16 08:40:34;;;;;;;10.20;4.23;;;23.50;86.20;;;;;;5033176;28;20459;-70
2023/09/16 08:43:16;;;;;;;6.37;3.90;;;23.70;73.50;;;;;;5033928;28;20455;-68
2023/09/16 08:45:50;;;;;;;9.20;4.77;;;24.00;73.70;;;;;;5033858;28;20448;-69
2023/09/16 08:48:22;;;;;;;7.30;4.40;;;24.20;72.00;;;;;;5032232;28;20454;-68
2023/09/16 08:50:53;;;;;;;7.43;4.53;;;24.20;61.40;;;;;;5033096;28;20472;-70
2023/09/16 08:53:20;;;;;;;7.17;4.57;;;24.40;58.90;;;;;;5033771;28;20788;-69
2023/09/16 08:55:48;;;;;;;6.57;4.20;;;24.80;57.70;;;;;;5033562;28;20454;-69
2023/09/16 08:58:16;;;;;;;8.50;5.07;;;24.90;53.40;;;;;;5033768;28;20471;-69
2023/09/16 09:00:43;;;;;;;7.03;4.37;;;24.70;54.20;;;;;;5033354;28;20452;-69
2023/09/16 09:03:11;;;;;;;8.77;4.90;;;24.80;48.90;;;;;;5033562;28;20452;-69
2023/09/16 09:05:38;;;;;;;8.97;5.10;;;25.00;49.10;;;;;;5033744;28;20454;-68
2023/09/16 09:08:09;;;;;;;12.20;4.70;;;25.20;49.20;;;;;;5033536;28;20453;-68
2023/09/16 09:10:36;;;;;;;8.60;5.80;;;25.60;49.50;;;;;;5032994;28;20459;-68
2023/09/16 09:13:06;;;;;;;8.70;5.40;;;25.60;45.00;;;;;;5033167;28;20526;-69
2023/09/16 09:15:35;;;;;;;7.95;5.22;;;25.60;49.40;;;;;;5033054;28;20476;-69
2023/09/16 09:18:03;;;;;;;10.40;5.10;;;26.00;47.90;;;;;;5033244;28;20228;-68
2023/09/16 09:20:30;;;;;;;8.20;4.70;;;26.20;40.80;;;;;;5033085;28;20456;-68
2023/09/16 09:22:58;;;;;;;10.00;5.60;;;26.50;41.90;;;;;;5033259;28;20484;-68
2023/09/16 09:25:28;;;;;;;8.37;5.47;;;26.40;38.50;;;;;;5033331;28;20920;-69
2023/09/16 09:27:57;;;;;;;7.60;4.80;;;26.20;40.80;;;;;;5033266;28;20458;-69
2023/09/16 09:30:27;;;;;;;7.87;5.23;;;26.40;40.10;;;;;;5032813;28;20451;-68
2023/09/16 09:32:55;;;;;;;9.07;5.00;;;26.70;31.90;;;;;;5033277;28;20475;-68
2023/09/16 09:35:23;;;;;;;7.67;5.00;;;27.00;32.10;;;;;;5033120;28;20551;-68
2023/09/16 09:37:50;;;;;;;10.83;4.87;;;27.30;27.50;;;;;;5033005;28;20433;-69
2023/09/16 09:40:17;;;;;;;9.80;4.83;;;27.30;26.80;;;;;;5032822;28;20448;-69
2023/09/16 09:42:46;;;;;;;10.83;5.70;;;27.40;24.60;;;;;;5032902;28;20452;-69
2023/09/16 09:45:14;;;;;;;7.90;4.70;;;27.70;24.80;;;;;;5033099;28;20451;-69
2023/09/16 09:47:42;;;;;;;7.83;4.80;;;28.20;25.10;;;;;;5032955;28;20452;-68
2023/09/16 09:50:16;;;;;;;8.13;5.43;;;28.40;22.20;;;;;;5032638;28;20826;-68
2023/09/16 09:52:47;;;;;;;8.57;5.57;;;28.70;17.80;;;;;;5032227;28;20456;-66
2023/09/16 09:55:16;;;;;;;9.27;6.10;;;28.80;17.90;;;;;;5031173;28;20449;-68
2023/09/16 09:57:46;;;;;;;8.70;5.83;;;28.90;14.70;;;;;;5031673;28;20654;-69
2023/09/16 10:00:16;;;;;;;10.00;5.37;;;29.10;13.00;;;;;;5032306;28;20449;-68
2023/09/16 10:02:43;;;;;;;8.97;6.23;;;29.30;10.50;;;;;;5032269;28;20945;-69
2023/09/16 10:05:15;;;;;;;10.63;5.77;;;29.30;10.50;;;;;;5044198;28;20453;-68
2023/09/16 10:07:43;;;;;;;7.70;5.83;;;29.50;10.60;;;;;;5052182;28;20949;-68
2023/09/16 10:10:16;;;;;;;7.80;6.30;;;30.00;6.80;;;;;;5051877;28;20478;-68
2023/09/16 10:12:45;;;;;;;8.03;5.47;;;30.10;3.90;;;;;;5052226;28;20447;-68
2023/09/16 10:15:13;;;;;;;9.17;5.73;;;29.90;2.90;;;;;;5035453;28;20444;-68
2023/09/16 10:17:40;;;;;;;9.77;5.57;;;30.10;9.10;;;;;;5032187;28;20823;-68
2023/09/16 10:20:10;;;;;;;8.80;5.10;;;30.10;3.00;;;;;;5031803;28;20476;-68
2023/09/16 10:22:37;;;;;;;12.07;6.43;;;30.00;3.00;;;;;;5031967;28;20970;-68
2023/09/16 10:25:06;;;;;;;8.37;5.70;;;30.10;3.00;;;;;;5032283;28;20539;-68
2023/09/16 10:27:36;;;;;;;10.87;7.23;;;30.20;3.10;;;;;;5031926;28;20456;-68
2023/09/16 10:30:05;;;;;;;9.20;6.47;;;30.80;1.00;;;;;;5031786;28;20447;-68
2023/09/16 10:32:32;;;;;;;9.20;7.20;;;30.90;1.00;;;;;;5031607;28;20455;-68
2023/09/16 10:35:02;;;;;;;7.60;5.10;;;30.60;1.00;;;;;;5031411;28;20901;-68
2023/09/16 10:37:30;;;;;;;9.27;5.80;;;31.50;1.00;;;;;;5031393;28;20506;-69
2023/09/16 10:39:59;;;;;;;8.43;5.07;;;31.70;1.00;;;;;;5031027;28;20482;-68
2023/09/16 10:42:26;;;;;;;9.20;6.00;;;32.20;1.00;;;;;;5031682;28;20474;-69
2023/09/16 10:44:57;;;;;;;9.50;6.60;;;32.20;1.00;;;;;;5032367;28;20454;-69
2023/09/16 10:47:25;;;;;;;8.80;6.20;;;32.50;1.00;;;;;;5031984;28;20505;-68
2023/09/16 10:49:52;;;;;;;11.20;6.63;;;32.40;1.00;;;;;;5032028;28;20448;-69
2023/09/16 10:52:25;;;;;;;11.70;5.90;;;32.50;1.00;;;;;;5032229;28;20456;-68
2023/09/16 10:54:58;;;;;;;10.17;5.97;;;32.40;1.00;;;;;;5032282;28;20422;-68
2023/09/16 10:57:31;;;;;;;9.03;6.60;;;32.50;1.00;;;;;;5032271;28;20451;-66
2023/09/16 11:00:01;;;;;;;14.87;7.00;;;32.70;1.00;;;;;;5031902;28;20990;-68
2023/09/16 11:02:36;;;;;;;9.73;6.83;;;32.30;1.00;;;;;;5032293;28;20448;-68
2023/09/16 11:05:03;;;;;;;9.97;6.83;;;32.10;1.00;;;;;;5032289;28;20432;-66
2023/09/16 11:07:31;;;;;;;11.40;6.23;;;32.70;1.00;;;;;;5032273;28;20452;-65
2023/09/16 11:09:59;;;;;;;8.17;5.53;;;32.70;1.00;;;;;;5032353;28;20452;-66
2023/09/16 11:12:27;;;;;;;7.27;5.27;;;32.50;1.00;;;;;;5035624;28;20433;-66
2023/09/16 11:14:54;;;;;;;11.37;5.87;;;33.20;1.00;;;;;;5035693;28;20540;-66
2023/09/16 11:17:23;;;;;;;16.70;6.13;;;32.90;1.00;;;;;;5035141;28;20944;-66
2023/09/16 11:19:53;;;;;;;9.40;5.83;;;34.00;1.00;;;;;;5034763;28;20487;-66
2023/09/16 11:22:20;;;;;;;7.37;5.00;;;34.20;1.00;;;;;;5035151;28;20444;-66
2023/09/16 11:24:53;;;;;;;7.23;5.17;;;34.20;1.00;;;;;;5035339;28;20834;-65
2023/09/16 11:27:20;;;;;;;8.70;5.30;;;34.60;1.00;;;;;;5035658;28;20426;-66
2023/09/16 11:29:51;;;;;;;7.80;4.90;;;35.00;1.00;;;;;;5035308;28;20444;-65
2023/09/16 11:32:21;;;;;;;10.17;5.83;;;34.30;1.00;;;;;;5035594;28;20448;-65
2023/09/16 11:34:59;;;;;;;7.20;5.10;;;33.10;1.00;;;;;;5034839;28;20480;-66
2023/09/16 11:37:31;;;;;;;10.47;5.33;;;33.70;1.00;;;;;;5034859;28;20462;-65
2023/09/16 11:40:00;;;;;;;8.47;5.73;;;33.50;1.00;;;;;;5035058;28;20838;-66
2023/09/16 11:42:27;;;;;;;9.20;5.70;;;34.00;1.00;;;;;;5035019;28;20452;-66
2023/09/16 11:44:55;;;;;;;7.63;5.00;;;34.20;1.00;;;;;;5035017;28;20458;-66
2023/09/16 11:47:22;;;;;;;12.30;5.63;;;33.90;1.00;;;;;;5034858;28;20463;-66
2023/09/16 11:49:49;;;;;;;9.83;6.10;;;34.70;1.00;;;;;;5034704;28;20425;-65
2023/09/16 11:52:17;;;;;;;12.13;5.70;;;33.80;1.00;;;;;;5034877;28;20549;-68
2023/09/16 11:54:47;;;;;;;10.93;6.30;;;33.20;1.00;;;;;;5035077;28;20460;-68
2023/09/16 11:57:14;;;;;;;14.00;5.73;;;33.60;1.00;;;;;;5035121;28;20823;-66
2023/09/16 11:59:41;;;;;;;11.43;6.80;;;35.00;1.00;;;;;;5034507;28;20480;-66
2023/09/16 12:02:09;;;;;;;8.00;5.30;;;35.00;1.00;;;;;;5034809;28;20454;-65
2023/09/16 12:04:36;;;;;;;8.50;5.40;;;34.60;1.00;;;;;;5034816;28;20456;-65
2023/09/16 12:07:04;;;;;;;8.03;5.73;;;34.80;1.00;;;;;;5034871;28;20426;-65
2023/09/16 12:09:33;;;;;;;7.77;5.57;;;34.30;1.00;;;;;;5034523;28;20419;-65
2023/09/16 12:12:00;;;;;;;9.43;4.60;;;35.00;1.00;;;;;;5034556;28;20470;-66
2023/09/16 12:14:30;;;;;;;8.23;4.90;;;36.00;1.00;;;;;;5034512;28;21013;-66
2023/09/16 12:16:57;;;;;;;8.03;5.40;;;36.60;1.00;;;;;;5033993;28;20460;-65
2023/09/16 12:19:23;;;;;;;7.50;5.20;;;36.40;1.00;;;;;;5034123;28;20695;-66
2023/09/16 12:21:51;;;;;;;10.32;6.00;;;36.70;1.00;;;;;;5036385;28;20438;-66
2023/09/16 12:24:19;;;;;;;11.23;5.00;;;37.10;1.00;;;;;;5039189;28;20247;-65
2023/09/16 12:26:48;;;;;;;8.27;4.93;;;36.60;1.00;;;;;;5039725;28;20930;-66